HYUNDAI Getz 1.3 ACTIVE

2005-01-30 - 2007-05-13 (832 dni)
rok prod. 2004
silnik: 1.3

W trakcie testu zużyto 1 777,74 litrów paliwa, o łącznej wartości 7 040,05PLN.
Poniesiono również inne wydatki związane z eksploatacją auta w kwocie 2 880,60PLN.
Auto podczas testu przejechało 29 154km.

Wyliczenia

Opis techniczny właściciela:

moc max. 60,3 kW (82 KM) / 5800 rpm
moment max. 116,7 Nm / 3200 rpm
vmax 164 km/h
przyspieszenie 0-100 km/h: 11,5s
manualna skrzynia 5 biegowa
wspomaganie, opony 175/65R14, regulacja kolumny kierownicy, elektryczne szyby, dzielona kanapa, kładziona kanapa, pełnowymiarowe koło zapasowe, 5 3punktowych pasów, obrotomierz, centralny zamek, gumowe dywaniki
Sposób wyliczania zużytego paliwa:
Zakupione paliwo - pojemność baku (przyjmuje się że ostatnie tankowanie jest do pełna, w przypadku tankowania częściowego mogą wystąpić drobne odchylenia w wyliczeniu). Do wyliczeń kosztowych nie uwzględnia się obecnej wartości paliwa w baku, ponieważ nie zostało jeszcze zużyte.


Szczegóły testu

Pierwszy wpis

Stan licznika Pojemność baku Domyślna cena za litr Wartość paliwa
21 45 3.62 162.9

Kolejne wpisy

Stan licznika Data Zatankowano Cena za litr Wartość paliwa Spalanie na 100km*
453 2005-02-11 37.40 3.62 135.39 -
929 2005-02-25 41.01 3.52 144.36 -
1398 2005-03-11 40.37 3.59 144.93 -
1889 2005-03-23 40.50 3.65 147.83 -
2385 2005-04-05 40.34 3.85 155.31 -
2920 2005-04-20 44.00 4.03 177.32 -
3422 2005-05-02 40.01 3.95 158.04 -
3956 2005-05-16 39.88 3.81 151.94 -
4445 2005-06-04 38.35 3.99 153.02 -
5069 2005-06-05 40.85 3.99 162.99 7.84
5584 2005-06-13 41.41 3.85 159.43 7.85
6087 2005-06-23 40.00 3.96 158.40 7.80
6646 2005-07-02 40.54 4.07 165.00 7.68
7224 2005-07-10 38.09 4.05 154.26 7.55
7803 2005-07-16 40.81 4.11 167.73 7.44
8329 2005-07-25 40.34 4.13 166.60 7.34
8842 2005-08-05 40.23 4.17 167.76 7.37
9382 2005-08-07 41.93 4.17 174.85 7.30
9934 2005-08-15 41.26 4.29 177.01 7.49
10511 2005-08-21 41.91 4.23 177.28 7.40
11075 2005-08-25 41.25 4.39 181.09 7.32
11633 2005-08-28 38.98 4.39 171.12 7.35
12173 2005-09-06 44.00 4.40 193.60 7.37
12833 2005-09-11 41.69 4.55 189.69 7.37
13349 2005-09-29 46.00 4.21 193.66 7.40
13889 2005-10-17 42.15 4.19 176.61 7.47
14373 2005-10-30 42.15 4.14 174.50 7.60
14813 2005-11-14 41.84 4.11 171.96 7.78
15233 2005-11-26 42.01 4.25 178.54 8.05
15674 2005-12-10 40.59 3.85 156.27 8.26
16110 2005-12-10 40.00 4.21 168.40 8.47
16672 2005-12-12 42.62 3.84 163.66 8.46
17142 2005-12-28 44.03 3.79 166.87 8.80
17585 2006-01-15 39.94 3.71 148.18 9.00
18002 2006-01-30 40.57 3.71 150.51 9.13
18471 2006-02-18 44.36 3.69 163.69 9.12
18940 2006-03-16 41.64 3.69 153.65 9.11
19441 2006-03-31 43.60 3.75 163.50 8.93
19975 2006-04-18 44.70 4.01 179.25 8.77
28200 2006-11-14 44.43 3.69 163.95 3.16
28664 2006-11-30 41.50 3.49 144.84 3.22
29140 2006-12-20 43.99 3.55 156.16 3.21
29607 2006-12-30 36.47 3.75 136.76 3.20
RAZEM
29 154
1 822,74 Śr. 3,95 7 208,80 6.10

* średnia z 10 ostatnich wpisów, korygowana o paliwo w baku.

Wykres spalania:




Inne wydatki

Stan licznika Data Opis Cena
10 2005-01-26 Rejestracja 178.50
10 2005-01-28 Dopłata do ubezpieczenia za niski wiek 247.00
31 2005-01-29 Blokada, lampka, pompka, żarówki, zielone naklejki 263.84
2800 2005-04-18 Plandeka 2x3m 16.00
3000 2005-04-27 CB radio + antena 310.08
3900 2005-05-21 Żarówki W5W Philips Bluevision (para) 16.90
4000 2005-05-23 Bagażnik Thule (belki+stopy+adapter3d+kit) 590.00
4100 2005-06-02 Radio 339.00
8500 2005-08-01 Głośniki 119.00
8500 2005-08-01 płyta mdf pod głośniki 10.33
14500 2005-11-10 Sava Eskimo S3 175/65R14 - 5 sztuk 789.95
RAZEM 2 880,60